Terminal Aerodrome Forecast
Issued by NWS Memphis, TN

Home | Current Version | Previous Version | Text Only | Print | Product List | Glossary On
Versions: 1 2 3 4 5 6 7 8 9 10 11 12 13 14 15 16 17 18 19 20 21 22 23 24 25 26 27 28 29 30 31 32
871
FTUS44 KMEG 280523
TAFMEM
TAF
KMEM 280523Z 2806/2906 04007KT P6SM BKN045
      TEMPO 2808/2812 3SM BR SCT045
     FM281200 02005KT P6SM SCT015 BKN060
      TEMPO 2812/2816 BKN015
     FM281900 03005KT P6SM OVC100
     FM290400 06008KT P6SM OVC050=

USA.gov is the U.S. government's official web portal to all federal, state and local government web resources and services.